sensor_id;sensor_type;location;lat;lon;timestamp;temperature;humidity
65692;DHT22;52411;52.716;6.696;2023-07-20T00:01:17;15.80;99.90
65692;DHT22;52411;52.716;6.696;2023-07-20T00:03:43;15.80;99.90
65692;DHT22;52411;52.716;6.696;2023-07-20T00:06:08;15.80;99.90
65692;DHT22;52411;52.716;6.696;2023-07-20T00:08:34;15.80;99.90
65692;DHT22;52411;52.716;6.696;2023-07-20T00:11:00;15.80;99.90
65692;DHT22;52411;52.716;6.696;2023-07-20T00:13:25;15.80;99.90
65692;DHT22;52411;52.716;6.696;2023-07-20T00:15:52;15.70;99.90
65692;DHT22;52411;52.716;6.696;2023-07-20T00:18:18;15.70;99.90
65692;DHT22;52411;52.716;6.696;2023-07-20T00:20:47;15.70;99.90
65692;DHT22;52411;52.716;6.696;2023-07-20T00:23:12;15.70;99.90
65692;DHT22;52411;52.716;6.696;2023-07-20T00:25:38;15.70;99.90
65692;DHT22;52411;52.716;6.696;2023-07-20T00:28:04;15.70;99.90
65692;DHT22;52411;52.716;6.696;2023-07-20T00:30:29;15.70;99.90
65692;DHT22;52411;52.716;6.696;2023-07-20T00:32:55;15.70;99.90
65692;DHT22;52411;52.716;6.696;2023-07-20T00:35:20;15.70;99.90
65692;DHT22;52411;52.716;6.696;2023-07-20T00:37:46;15.70;99.90
65692;DHT22;52411;52.716;6.696;2023-07-20T00:40:12;15.70;99.90
65692;DHT22;52411;52.716;6.696;2023-07-20T00:42:37;15.70;99.90
65692;DHT22;52411;52.716;6.696;2023-07-20T00:45:03;15.70;99.90
65692;DHT22;52411;52.716;6.696;2023-07-20T00:47:29;15.70;99.90
65692;DHT22;52411;52.716;6.696;2023-07-20T00:49:55;15.70;99.90
65692;DHT22;52411;52.716;6.696;2023-07-20T00:52:23;15.70;99.90
65692;DHT22;52411;52.716;6.696;2023-07-20T00:54:50;15.70;99.90
65692;DHT22;52411;52.716;6.696;2023-07-20T00:57:17;15.60;99.90
65692;DHT22;52411;52.716;6.696;2023-07-20T00:59:45;15.60;99.90
65692;DHT22;52411;52.716;6.696;2023-07-20T01:02:10;15.60;99.90
65692;DHT22;52411;52.716;6.696;2023-07-20T01:04:36;15.50;99.90
65692;DHT22;52411;52.716;6.696;2023-07-20T01:09:44;15.40;99.90
65692;DHT22;52411;52.716;6.696;2023-07-20T01:12:30;15.40;99.90
65692;DHT22;52411;52.716;6.696;2023-07-20T01:14:57;15.40;99.90
65692;DHT22;52411;52.716;6.696;2023-07-20T01:17:23;15.30;99.90
65692;DHT22;52411;52.716;6.696;2023-07-20T01:19:49;15.30;99.90
65692;DHT22;52411;52.716;6.696;2023-07-20T01:30:50;15.20;99.90
65692;DHT22;52411;52.716;6.696;2023-07-20T01:33:18;15.30;99.90
65692;DHT22;52411;52.716;6.696;2023-07-20T01:35:52;15.30;99.90
65692;DHT22;52411;52.716;6.696;2023-07-20T01:38:19;15.30;99.90
65692;DHT22;52411;52.716;6.696;2023-07-20T01:40:45;15.30;99.90
65692;DHT22;52411;52.716;6.696;2023-07-20T01:43:12;15.30;99.90
65692;DHT22;52411;52.716;6.696;2023-07-20T01:45:38;15.20;99.90
65692;DHT22;52411;52.716;6.696;2023-07-20T01:48:04;15.20;99.90
65692;DHT22;52411;52.716;6.696;2023-07-20T01:50:29;15.20;99.90
65692;DHT22;52411;52.716;6.696;2023-07-20T01:52:55;15.10;99.90
65692;DHT22;52411;52.716;6.696;2023-07-20T01:55:20;15.10;99.90
65692;DHT22;52411;52.716;6.696;2023-07-20T01:57:46;15.00;99.90
65692;DHT22;52411;52.716;6.696;2023-07-20T02:00:12;15.00;99.90
65692;DHT22;52411;52.716;6.696;2023-07-20T02:02:38;14.90;99.90
65692;DHT22;52411;52.716;6.696;2023-07-20T02:05:03;14.80;99.90
65692;DHT22;52411;52.716;6.696;2023-07-20T02:07:29;14.70;99.90
65692;DHT22;52411;52.716;6.696;2023-07-20T02:09:55;14.70;99.90
65692;DHT22;52411;52.716;6.696;2023-07-20T02:12:20;14.70;99.90
65692;DHT22;52411;52.716;6.696;2023-07-20T02:14:46;14.60;99.90
65692;DHT22;52411;52.716;6.696;2023-07-20T02:17:11;14.50;99.90
65692;DHT22;52411;52.716;6.696;2023-07-20T02:19:37;14.50;99.90
65692;DHT22;52411;52.716;6.696;2023-07-20T02:22:04;14.40;99.90
65692;DHT22;52411;52.716;6.696;2023-07-20T02:24:29;14.30;99.90
65692;DHT22;52411;52.716;6.696;2023-07-20T02:26:55;14.30;99.90
65692;DHT22;52411;52.716;6.696;2023-07-20T02:29:20;14.20;99.90
65692;DHT22;52411;52.716;6.696;2023-07-20T02:31:46;14.10;99.90
65692;DHT22;52411;52.716;6.696;2023-07-20T02:34:12;14.10;99.90
65692;DHT22;52411;52.716;6.696;2023-07-20T02:36:37;14.00;99.90
65692;DHT22;52411;52.716;6.696;2023-07-20T02:39:03;13.90;99.90
65692;DHT22;52411;52.716;6.696;2023-07-20T02:41:30;13.90;99.90
65692;DHT22;52411;52.716;6.696;2023-07-20T02:43:56;13.90;99.90
65692;DHT22;52411;52.716;6.696;2023-07-20T02:46:22;13.80;99.90
65692;DHT22;52411;52.716;6.696;2023-07-20T02:48:47;13.80;99.90
65692;DHT22;52411;52.716;6.696;2023-07-20T02:51:13;13.80;99.90
65692;DHT22;52411;52.716;6.696;2023-07-20T02:53:39;13.70;99.90
65692;DHT22;52411;52.716;6.696;2023-07-20T02:56:04;13.60;99.90
65692;DHT22;52411;52.716;6.696;2023-07-20T02:58:30;13.60;99.90
65692;DHT22;52411;52.716;6.696;2023-07-20T03:00:56;13.60;99.90
65692;DHT22;52411;52.716;6.696;2023-07-20T03:03:22;13.60;99.90
65692;DHT22;52411;52.716;6.696;2023-07-20T03:05:47;13.60;99.90
65692;DHT22;52411;52.716;6.696;2023-07-20T03:08:19;13.50;99.90
65692;DHT22;52411;52.716;6.696;2023-07-20T03:10:45;13.40;99.90
65692;DHT22;52411;52.716;6.696;2023-07-20T03:13:10;13.40;99.90
65692;DHT22;52411;52.716;6.696;2023-07-20T03:15:36;13.30;99.90
65692;DHT22;52411;52.716;6.696;2023-07-20T03:18:02;13.30;99.90
65692;DHT22;52411;52.716;6.696;2023-07-20T03:20:29;13.30;99.90
65692;DHT22;52411;52.716;6.696;2023-07-20T03:22:55;13.30;99.90
65692;DHT22;52411;52.716;6.696;2023-07-20T03:25:20;13.20;99.90
65692;DHT22;52411;52.716;6.696;2023-07-20T03:27:46;13.20;99.90
65692;DHT22;52411;52.716;6.696;2023-07-20T03:30:12;13.20;99.90
65692;DHT22;52411;52.716;6.696;2023-07-20T03:32:37;13.10;99.90
65692;DHT22;52411;52.716;6.696;2023-07-20T03:35:03;13.10;99.90
65692;DHT22;52411;52.716;6.696;2023-07-20T03:37:30;13.10;99.90
65692;DHT22;52411;52.716;6.696;2023-07-20T03:39:55;13.10;99.90
65692;DHT22;52411;52.716;6.696;2023-07-20T03:42:21;13.10;99.90
65692;DHT22;52411;52.716;6.696;2023-07-20T03:44:46;13.00;99.90
65692;DHT22;52411;52.716;6.696;2023-07-20T03:47:13;13.00;99.90
65692;DHT22;52411;52.716;6.696;2023-07-20T03:49:38;13.00;99.90
65692;DHT22;52411;52.716;6.696;2023-07-20T03:52:04;13.00;99.90
65692;DHT22;52411;52.716;6.696;2023-07-20T03:54:30;13.00;99.90
65692;DHT22;52411;52.716;6.696;2023-07-20T03:56:55;13.00;99.90
65692;DHT22;52411;52.716;6.696;2023-07-20T03:59:21;13.00;99.90
65692;DHT22;52411;52.716;6.696;2023-07-20T04:01:46;12.90;99.90
65692;DHT22;52411;52.716;6.696;2023-07-20T04:04:15;13.00;99.90
65692;DHT22;52411;52.716;6.696;2023-07-20T04:06:41;12.90;99.90
65692;DHT22;52411;52.716;6.696;2023-07-20T04:09:10;12.90;99.90
65692;DHT22;52411;52.716;6.696;2023-07-20T04:11:36;12.90;99.90
65692;DHT22;52411;52.716;6.696;2023-07-20T04:14:02;12.90;99.90
65692;DHT22;52411;52.716;6.696;2023-07-20T04:16:27;12.90;99.90
65692;DHT22;52411;52.716;6.696;2023-07-20T04:18:55;13.00;99.90
65692;DHT22;52411;52.716;6.696;2023-07-20T04:21:22;13.00;99.90
65692;DHT22;52411;52.716;6.696;2023-07-20T04:23:48;12.90;99.90
65692;DHT22;52411;52.716;6.696;2023-07-20T04:26:13;13.00;99.90
65692;DHT22;52411;52.716;6.696;2023-07-20T04:28:40;13.00;99.90
65692;DHT22;52411;52.716;6.696;2023-07-20T04:31:14;13.00;99.90
65692;DHT22;52411;52.716;6.696;2023-07-20T04:33:40;13.00;99.90
65692;DHT22;52411;52.716;6.696;2023-07-20T04:36:06;13.10;99.90
65692;DHT22;52411;52.716;6.696;2023-07-20T04:38:31;13.10;99.90
65692;DHT22;52411;52.716;6.696;2023-07-20T04:40:57;13.10;99.90
65692;DHT22;52411;52.716;6.696;2023-07-20T04:43:23;13.20;99.90
65692;DHT22;52411;52.716;6.696;2023-07-20T04:45:48;13.20;99.90
65692;DHT22;52411;52.716;6.696;2023-07-20T04:48:16;13.30;99.90
65692;DHT22;52411;52.716;6.696;2023-07-20T04:50:44;13.20;99.90
65692;DHT22;52411;52.716;6.696;2023-07-20T04:53:13;13.30;99.90
65692;DHT22;52411;52.716;6.696;2023-07-20T04:55:39;13.30;99.90
65692;DHT22;52411;52.716;6.696;2023-07-20T04:58:06;13.40;99.90
65692;DHT22;52411;52.716;6.696;2023-07-20T05:00:37;13.40;99.90
65692;DHT22;52411;52.716;6.696;2023-07-20T05:03:03;13.50;99.90
65692;DHT22;52411;52.716;6.696;2023-07-20T05:05:30;13.50;99.90
65692;DHT22;52411;52.716;6.696;2023-07-20T05:07:57;13.50;99.90
65692;DHT22;52411;52.716;6.696;2023-07-20T05:10:23;13.50;99.90
65692;DHT22;52411;52.716;6.696;2023-07-20T05:12:49;13.60;99.90
65692;DHT22;52411;52.716;6.696;2023-07-20T05:15:14;13.70;99.90
65692;DHT22;52411;52.716;6.696;2023-07-20T05:17:40;13.70;99.90
65692;DHT22;52411;52.716;6.696;2023-07-20T05:20:06;13.80;99.90
65692;DHT22;52411;52.716;6.696;2023-07-20T05:22:35;13.80;99.90
65692;DHT22;52411;52.716;6.696;2023-07-20T05:25:01;13.90;99.90
65692;DHT22;52411;52.716;6.696;2023-07-20T05:27:27;13.90;99.90
65692;DHT22;52411;52.716;6.696;2023-07-20T05:29:52;13.90;99.90
65692;DHT22;52411;52.716;6.696;2023-07-20T05:32:18;14.00;99.90
65692;DHT22;52411;52.716;6.696;2023-07-20T05:34:44;14.00;99.90
65692;DHT22;52411;52.716;6.696;2023-07-20T05:37:09;14.10;99.90
65692;DHT22;52411;52.716;6.696;2023-07-20T05:39:35;14.20;99.90
65692;DHT22;52411;52.716;6.696;2023-07-20T05:42:01;14.20;99.90
65692;DHT22;52411;52.716;6.696;2023-07-20T05:44:26;14.30;99.90
65692;DHT22;52411;52.716;6.696;2023-07-20T05:46:52;14.30;99.90
65692;DHT22;52411;52.716;6.696;2023-07-20T05:49:17;14.40;99.90
65692;DHT22;52411;52.716;6.696;2023-07-20T05:51:43;14.50;99.90
65692;DHT22;52411;52.716;6.696;2023-07-20T05:54:08;14.60;99.90
65692;DHT22;52411;52.716;6.696;2023-07-20T05:56:34;14.60;99.90
65692;DHT22;52411;52.716;6.696;2023-07-20T05:59:00;14.70;99.90
65692;DHT22;52411;52.716;6.696;2023-07-20T06:01:25;14.80;99.90
65692;DHT22;52411;52.716;6.696;2023-07-20T06:03:53;14.80;99.90
65692;DHT22;52411;52.716;6.696;2023-07-20T06:06:19;14.90;99.90
65692;DHT22;52411;52.716;6.696;2023-07-20T06:08:44;15.00;99.90
65692;DHT22;52411;52.716;6.696;2023-07-20T06:11:11;15.00;99.90
65692;DHT22;52411;52.716;6.696;2023-07-20T06:13:36;15.10;99.90
65692;DHT22;52411;52.716;6.696;2023-07-20T06:16:03;15.20;99.90
65692;DHT22;52411;52.716;6.696;2023-07-20T06:18:29;15.30;99.90
65692;DHT22;52411;52.716;6.696;2023-07-20T06:20:56;15.30;99.90
65692;DHT22;52411;52.716;6.696;2023-07-20T06:23:22;15.40;99.90
65692;DHT22;52411;52.716;6.696;2023-07-20T06:25:47;15.50;99.90
65692;DHT22;52411;52.716;6.696;2023-07-20T06:28:13;15.50;99.90
65692;DHT22;52411;52.716;6.696;2023-07-20T06:30:39;15.60;99.90
65692;DHT22;52411;52.716;6.696;2023-07-20T06:33:05;15.70;99.90
65692;DHT22;52411;52.716;6.696;2023-07-20T06:35:31;15.70;99.90
65692;DHT22;52411;52.716;6.696;2023-07-20T06:37:57;15.80;99.90
65692;DHT22;52411;52.716;6.696;2023-07-20T06:40:24;15.80;99.90
65692;DHT22;52411;52.716;6.696;2023-07-20T06:42:50;15.90;99.90
65692;DHT22;52411;52.716;6.696;2023-07-20T06:45:15;16.00;99.90
65692;DHT22;52411;52.716;6.696;2023-07-20T06:47:41;16.00;99.90
65692;DHT22;52411;52.716;6.696;2023-07-20T06:50:08;16.10;99.90
65692;DHT22;52411;52.716;6.696;2023-07-20T06:52:34;16.10;99.90
65692;DHT22;52411;52.716;6.696;2023-07-20T06:54:59;16.10;99.90
65692;DHT22;52411;52.716;6.696;2023-07-20T06:57:25;16.10;99.90
65692;DHT22;52411;52.716;6.696;2023-07-20T06:59:51;16.20;99.90
65692;DHT22;52411;52.716;6.696;2023-07-20T07:02:17;16.30;99.90
65692;DHT22;52411;52.716;6.696;2023-07-20T07:04:42;16.40;99.90
65692;DHT22;52411;52.716;6.696;2023-07-20T07:07:08;16.40;99.90
65692;DHT22;52411;52.716;6.696;2023-07-20T07:09:35;16.40;99.90
65692;DHT22;52411;52.716;6.696;2023-07-20T07:12:00;16.50;99.90
65692;DHT22;52411;52.716;6.696;2023-07-20T07:14:26;16.50;99.90
65692;DHT22;52411;52.716;6.696;2023-07-20T07:16:52;16.70;99.90
65692;DHT22;52411;52.716;6.696;2023-07-20T07:19:18;16.80;99.90
65692;DHT22;52411;52.716;6.696;2023-07-20T07:21:43;16.90;99.90
65692;DHT22;52411;52.716;6.696;2023-07-20T07:24:09;17.00;99.90
65692;DHT22;52411;52.716;6.696;2023-07-20T07:26:36;17.10;99.90
65692;DHT22;52411;52.716;6.696;2023-07-20T07:29:01;17.30;99.90
65692;DHT22;52411;52.716;6.696;2023-07-20T07:31:29;17.40;99.90
65692;DHT22;52411;52.716;6.696;2023-07-20T07:33:54;17.40;99.90
65692;DHT22;52411;52.716;6.696;2023-07-20T07:36:20;17.40;99.90
65692;DHT22;52411;52.716;6.696;2023-07-20T07:38:46;17.30;99.90
65692;DHT22;52411;52.716;6.696;2023-07-20T07:41:11;17.40;99.90
65692;DHT22;52411;52.716;6.696;2023-07-20T07:43:37;17.50;99.90
65692;DHT22;52411;52.716;6.696;2023-07-20T07:46:04;17.70;99.90
65692;DHT22;52411;52.716;6.696;2023-07-20T07:48:29;17.90;99.90
65692;DHT22;52411;52.716;6.696;2023-07-20T07:50:55;18.10;99.90
65692;DHT22;52411;52.716;6.696;2023-07-20T07:53:21;18.30;99.90
65692;DHT22;52411;52.716;6.696;2023-07-20T07:55:49;18.40;99.90
65692;DHT22;52411;52.716;6.696;2023-07-20T07:58:15;18.10;99.90
65692;DHT22;52411;52.716;6.696;2023-07-20T08:00:41;17.90;99.90
65692;DHT22;52411;52.716;6.696;2023-07-20T08:03:08;17.90;99.90
65692;DHT22;52411;52.716;6.696;2023-07-20T08:05:33;18.00;99.90
65692;DHT22;52411;52.716;6.696;2023-07-20T08:08:01;18.10;99.90
65692;DHT22;52411;52.716;6.696;2023-07-20T08:10:26;18.10;99.90
65692;DHT22;52411;52.716;6.696;2023-07-20T08:12:52;18.10;99.90
65692;DHT22;52411;52.716;6.696;2023-07-20T08:15:17;18.30;99.90
65692;DHT22;52411;52.716;6.696;2023-07-20T08:17:43;18.40;99.90
65692;DHT22;52411;52.716;6.696;2023-07-20T08:20:10;18.50;99.90
65692;DHT22;52411;52.716;6.696;2023-07-20T08:22:39;18.60;99.90
65692;DHT22;52411;52.716;6.696;2023-07-20T08:25:08;18.60;99.90
65692;DHT22;52411;52.716;6.696;2023-07-20T08:27:34;18.50;99.90
65692;DHT22;52411;52.716;6.696;2023-07-20T08:29:59;18.50;99.90
65692;DHT22;52411;52.716;6.696;2023-07-20T08:32:25;18.40;99.90
65692;DHT22;52411;52.716;6.696;2023-07-20T08:34:51;18.40;99.90
65692;DHT22;52411;52.716;6.696;2023-07-20T08:37:17;18.30;99.90
65692;DHT22;52411;52.716;6.696;2023-07-20T08:39:42;18.30;99.90
65692;DHT22;52411;52.716;6.696;2023-07-20T08:42:09;18.20;99.90
65692;DHT22;52411;52.716;6.696;2023-07-20T08:44:37;18.10;99.90
65692;DHT22;52411;52.716;6.696;2023-07-20T08:47:04;18.20;99.90
65692;DHT22;52411;52.716;6.696;2023-07-20T08:49:34;18.50;99.90
65692;DHT22;52411;52.716;6.696;2023-07-20T08:52:01;18.70;99.90
65692;DHT22;52411;52.716;6.696;2023-07-20T08:54:30;18.80;99.90
65692;DHT22;52411;52.716;6.696;2023-07-20T08:56:59;18.80;99.90
65692;DHT22;52411;52.716;6.696;2023-07-20T08:59:27;19.00;99.90
65692;DHT22;52411;52.716;6.696;2023-07-20T09:01:55;19.10;99.90
65692;DHT22;52411;52.716;6.696;2023-07-20T09:04:22;19.30;99.90
65692;DHT22;52411;52.716;6.696;2023-07-20T09:06:49;19.40;99.90
65692;DHT22;52411;52.716;6.696;2023-07-20T09:09:15;19.80;99.90
65692;DHT22;52411;52.716;6.696;2023-07-20T09:11:40;20.00;99.90
65692;DHT22;52411;52.716;6.696;2023-07-20T09:14:08;19.80;99.90
65692;DHT22;52411;52.716;6.696;2023-07-20T09:16:53;19.80;99.90
65692;DHT22;52411;52.716;6.696;2023-07-20T09:19:20;19.60;99.90
65692;DHT22;52411;52.716;6.696;2023-07-20T09:21:51;19.70;99.90
65692;DHT22;52411;52.716;6.696;2023-07-20T09:24:20;19.60;99.90
65692;DHT22;52411;52.716;6.696;2023-07-20T09:26:47;19.70;99.90
65692;DHT22;52411;52.716;6.696;2023-07-20T09:29:19;19.70;99.90
65692;DHT22;52411;52.716;6.696;2023-07-20T09:32:04;19.80;99.90
65692;DHT22;52411;52.716;6.696;2023-07-20T09:34:30;19.80;99.90
65692;DHT22;52411;52.716;6.696;2023-07-20T09:36:59;19.90;99.90
65692;DHT22;52411;52.716;6.696;2023-07-20T09:39:26;20.00;99.90
65692;DHT22;52411;52.716;6.696;2023-07-20T09:41:51;20.30;99.90
65692;DHT22;52411;52.716;6.696;2023-07-20T09:44:18;20.10;99.90
65692;DHT22;52411;52.716;6.696;2023-07-20T09:46:48;19.90;99.90
65692;DHT22;52411;52.716;6.696;2023-07-20T09:49:14;19.60;99.90
65692;DHT22;52411;52.716;6.696;2023-07-20T09:51:41;19.40;99.90
65692;DHT22;52411;52.716;6.696;2023-07-20T09:54:07;19.50;99.90
65692;DHT22;52411;52.716;6.696;2023-07-20T09:56:35;19.50;99.90
65692;DHT22;52411;52.716;6.696;2023-07-20T09:59:00;19.60;99.90
65692;DHT22;52411;52.716;6.696;2023-07-20T10:01:26;19.70;99.90
65692;DHT22;52411;52.716;6.696;2023-07-20T10:03:54;19.90;99.90
65692;DHT22;52411;52.716;6.696;2023-07-20T10:06:24;20.20;99.90
65692;DHT22;52411;52.716;6.696;2023-07-20T10:08:53;20.30;99.90
65692;DHT22;52411;52.716;6.696;2023-07-20T10:11:19;20.40;99.90
65692;DHT22;52411;52.716;6.696;2023-07-20T10:13:51;20.20;99.90
65692;DHT22;52411;52.716;6.696;2023-07-20T10:16:39;19.90;99.90
65692;DHT22;52411;52.716;6.696;2023-07-20T10:19:54;19.50;99.90
65692;DHT22;52411;52.716;6.696;2023-07-20T10:22:14;19.00;99.90
65692;DHT22;52411;52.716;6.696;2023-07-20T10:24:45;18.40;99.90
65692;DHT22;52411;52.716;6.696;2023-07-20T10:27:11;17.80;99.90
65692;DHT22;52411;52.716;6.696;2023-07-20T10:29:37;17.50;99.90
65692;DHT22;52411;52.716;6.696;2023-07-20T10:32:04;17.30;99.90
65692;DHT22;52411;52.716;6.696;2023-07-20T10:34:30;17.40;99.90
65692;DHT22;52411;52.716;6.696;2023-07-20T10:36:55;17.40;99.90
65692;DHT22;52411;52.716;6.696;2023-07-20T10:39:28;17.50;99.90
65692;DHT22;52411;52.716;6.696;2023-07-20T10:42:09;17.60;99.90
65692;DHT22;52411;52.716;6.696;2023-07-20T10:44:39;17.60;99.90
65692;DHT22;52411;52.716;6.696;2023-07-20T10:47:10;17.70;99.90
65692;DHT22;52411;52.716;6.696;2023-07-20T10:49:59;17.80;99.90
65692;DHT22;52411;52.716;6.696;2023-07-20T10:52:25;17.80;99.90
65692;DHT22;52411;52.716;6.696;2023-07-20T10:54:51;17.80;99.90
65692;DHT22;52411;52.716;6.696;2023-07-20T10:57:27;17.90;99.90
65692;DHT22;52411;52.716;6.696;2023-07-20T11:00:10;18.00;99.90
65692;DHT22;52411;52.716;6.696;2023-07-20T11:02:47;18.00;99.90
65692;DHT22;52411;52.716;6.696;2023-07-20T11:05:39;18.10;99.90
65692;DHT22;52411;52.716;6.696;2023-07-20T11:08:10;18.20;99.90
65692;DHT22;52411;52.716;6.696;2023-07-20T11:10:36;18.40;99.90
65692;DHT22;52411;52.716;6.696;2023-07-20T11:13:21;18.50;99.90
65692;DHT22;52411;52.716;6.696;2023-07-20T11:18:26;19.00;99.90
65692;DHT22;52411;52.716;6.696;2023-07-20T11:20:53;19.10;99.90
65692;DHT22;52411;52.716;6.696;2023-07-20T11:23:22;19.20;99.90
65692;DHT22;52411;52.716;6.696;2023-07-20T11:25:48;19.30;99.90
65692;DHT22;52411;52.716;6.696;2023-07-20T11:28:14;19.30;99.90
65692;DHT22;52411;52.716;6.696;2023-07-20T11:30:39;19.40;99.90
65692;DHT22;52411;52.716;6.696;2023-07-20T11:33:08;19.40;99.90
65692;DHT22;52411;52.716;6.696;2023-07-20T11:35:44;19.50;99.90
65692;DHT22;52411;52.716;6.696;2023-07-20T11:38:12;19.40;99.90
65692;DHT22;52411;52.716;6.696;2023-07-20T11:40:43;19.30;99.90
65692;DHT22;52411;52.716;6.696;2023-07-20T11:43:11;19.40;99.90
65692;DHT22;52411;52.716;6.696;2023-07-20T11:45:37;19.70;99.90
65692;DHT22;52411;52.716;6.696;2023-07-20T11:48:03;20.00;99.90
65692;DHT22;52411;52.716;6.696;2023-07-20T11:50:29;20.20;99.90
65692;DHT22;52411;52.716;6.696;2023-07-20T11:52:55;20.30;99.90
65692;DHT22;52411;52.716;6.696;2023-07-20T11:55:21;20.10;99.90
65692;DHT22;52411;52.716;6.696;2023-07-20T11:58:07;20.30;99.90
65692;DHT22;52411;52.716;6.696;2023-07-20T12:00:33;20.70;99.90
65692;DHT22;52411;52.716;6.696;2023-07-20T12:03:00;20.80;99.90
65692;DHT22;52411;52.716;6.696;2023-07-20T12:05:26;21.20;99.90
65692;DHT22;52411;52.716;6.696;2023-07-20T12:07:52;21.20;99.90
65692;DHT22;52411;52.716;6.696;2023-07-20T12:10:24;21.30;99.90
65692;DHT22;52411;52.716;6.696;2023-07-20T12:12:51;21.50;99.90
65692;DHT22;52411;52.716;6.696;2023-07-20T12:15:25;21.80;99.90
65692;DHT22;52411;52.716;6.696;2023-07-20T12:17:59;22.10;99.90
65692;DHT22;52411;52.716;6.696;2023-07-20T12:20:30;22.00;99.90
65692;DHT22;52411;52.716;6.696;2023-07-20T12:23:05;22.10;99.90
65692;DHT22;52411;52.716;6.696;2023-07-20T12:25:36;22.10;99.90
65692;DHT22;52411;52.716;6.696;2023-07-20T12:28:04;22.40;99.90
65692;DHT22;52411;52.716;6.696;2023-07-20T12:30:30;22.50;99.90
65692;DHT22;52411;52.716;6.696;2023-07-20T12:32:55;22.70;99.90
65692;DHT22;52411;52.716;6.696;2023-07-20T12:35:21;23.00;99.90
65692;DHT22;52411;52.716;6.696;2023-07-20T12:37:46;22.70;99.90
65692;DHT22;52411;52.716;6.696;2023-07-20T12:40:14;22.30;99.80
65692;DHT22;52411;52.716;6.696;2023-07-20T12:42:40;22.00;99.20
65692;DHT22;52411;52.716;6.696;2023-07-20T12:45:06;21.90;99.90
65692;DHT22;52411;52.716;6.696;2023-07-20T12:47:32;21.90;99.90
65692;DHT22;52411;52.716;6.696;2023-07-20T12:49:57;21.90;99.90
65692;DHT22;52411;52.716;6.696;2023-07-20T12:52:23;21.60;99.90
65692;DHT22;52411;52.716;6.696;2023-07-20T12:54:48;21.70;99.90
65692;DHT22;52411;52.716;6.696;2023-07-20T12:57:14;21.90;99.90
65692;DHT22;52411;52.716;6.696;2023-07-20T12:59:39;21.90;99.90
65692;DHT22;52411;52.716;6.696;2023-07-20T13:02:05;22.10;99.90
65692;DHT22;52411;52.716;6.696;2023-07-20T13:04:31;22.00;99.40
65692;DHT22;52411;52.716;6.696;2023-07-20T13:06:57;22.10;99.50
65692;DHT22;52411;52.716;6.696;2023-07-20T13:09:24;22.20;99.20
65692;DHT22;52411;52.716;6.696;2023-07-20T13:11:50;22.30;99.40
65692;DHT22;52411;52.716;6.696;2023-07-20T13:14:16;22.40;99.50
65692;DHT22;52411;52.716;6.696;2023-07-20T13:16:42;22.60;99.60
65692;DHT22;52411;52.716;6.696;2023-07-20T13:19:08;22.50;98.90
65692;DHT22;52411;52.716;6.696;2023-07-20T13:21:33;22.30;98.90
65692;DHT22;52411;52.716;6.696;2023-07-20T13:23:59;22.10;98.70
65692;DHT22;52411;52.716;6.696;2023-07-20T13:26:25;22.10;98.70
65692;DHT22;52411;52.716;6.696;2023-07-20T13:28:51;21.90;98.60
65692;DHT22;52411;52.716;6.696;2023-07-20T13:31:16;21.80;98.70
65692;DHT22;52411;52.716;6.696;2023-07-20T13:33:42;21.80;98.90
65692;DHT22;52411;52.716;6.696;2023-07-20T13:36:08;22.00;99.00
65692;DHT22;52411;52.716;6.696;2023-07-20T13:38:33;22.30;97.30
65692;DHT22;52411;52.716;6.696;2023-07-20T13:40:59;22.30;97.20
65692;DHT22;52411;52.716;6.696;2023-07-20T13:43:25;22.50;95.80
65692;DHT22;52411;52.716;6.696;2023-07-20T13:45:50;22.70;95.60
65692;DHT22;52411;52.716;6.696;2023-07-20T13:48:16;23.00;95.70
65692;DHT22;52411;52.716;6.696;2023-07-20T13:50:45;23.00;94.60
65692;DHT22;52411;52.716;6.696;2023-07-20T13:53:11;23.10;94.30
65692;DHT22;52411;52.716;6.696;2023-07-20T13:55:37;23.10;93.90
65692;DHT22;52411;52.716;6.696;2023-07-20T13:58:03;23.00;94.00
65692;DHT22;52411;52.716;6.696;2023-07-20T14:00:30;22.60;93.70
65692;DHT22;52411;52.716;6.696;2023-07-20T14:02:59;22.50;93.70
65692;DHT22;52411;52.716;6.696;2023-07-20T14:05:25;22.40;94.10
65692;DHT22;52411;52.716;6.696;2023-07-20T14:07:51;22.30;94.10
65692;DHT22;52411;52.716;6.696;2023-07-20T14:10:16;22.30;93.40
65692;DHT22;52411;52.716;6.696;2023-07-20T14:12:43;22.50;93.20
65692;DHT22;52411;52.716;6.696;2023-07-20T14:15:10;22.80;92.70
65692;DHT22;52411;52.716;6.696;2023-07-20T14:17:35;23.70;94.10
65692;DHT22;52411;52.716;6.696;2023-07-20T14:20:01;24.00;92.40
65692;DHT22;52411;52.716;6.696;2023-07-20T14:22:32;24.30;92.10
65692;DHT22;52411;52.716;6.696;2023-07-20T14:24:57;24.50;90.20
65692;DHT22;52411;52.716;6.696;2023-07-20T14:27:24;24.90;91.80
65692;DHT22;52411;52.716;6.696;2023-07-20T14:29:50;24.70;90.60
65692;DHT22;52411;52.716;6.696;2023-07-20T14:32:15;24.80;89.80
65692;DHT22;52411;52.716;6.696;2023-07-20T14:34:41;24.80;90.70
65692;DHT22;52411;52.716;6.696;2023-07-20T14:37:07;24.80;90.00
65692;DHT22;52411;52.716;6.696;2023-07-20T14:39:32;25.10;88.80
65692;DHT22;52411;52.716;6.696;2023-07-20T14:41:58;25.20;87.10
65692;DHT22;52411;52.716;6.696;2023-07-20T14:44:24;25.40;85.60
65692;DHT22;52411;52.716;6.696;2023-07-20T14:46:50;25.60;85.50
65692;DHT22;52411;52.716;6.696;2023-07-20T14:49:16;25.50;84.70
65692;DHT22;52411;52.716;6.696;2023-07-20T14:51:43;25.70;84.20
65692;DHT22;52411;52.716;6.696;2023-07-20T14:54:12;25.60;84.30
65692;DHT22;52411;52.716;6.696;2023-07-20T14:56:38;25.70;86.00
65692;DHT22;52411;52.716;6.696;2023-07-20T14:59:04;26.10;87.10
65692;DHT22;52411;52.716;6.696;2023-07-20T15:01:32;26.10;86.00
65692;DHT22;52411;52.716;6.696;2023-07-20T15:03:57;26.40;83.40
65692;DHT22;52411;52.716;6.696;2023-07-20T15:06:26;26.10;83.20
65692;DHT22;52411;52.716;6.696;2023-07-20T15:08:52;25.30;83.40
65692;DHT22;52411;52.716;6.696;2023-07-20T15:11:18;24.50;83.20
65692;DHT22;52411;52.716;6.696;2023-07-20T15:13:43;24.00;83.70
65692;DHT22;52411;52.716;6.696;2023-07-20T15:16:09;23.70;83.90
65692;DHT22;52411;52.716;6.696;2023-07-20T15:18:37;23.50;85.20
65692;DHT22;52411;52.716;6.696;2023-07-20T15:21:03;23.30;85.80
65692;DHT22;52411;52.716;6.696;2023-07-20T15:23:28;23.40;86.60
65692;DHT22;52411;52.716;6.696;2023-07-20T15:25:54;24.20;83.50
65692;DHT22;52411;52.716;6.696;2023-07-20T15:28:20;24.70;82.30
65692;DHT22;52411;52.716;6.696;2023-07-20T15:30:45;25.60;79.70
65692;DHT22;52411;52.716;6.696;2023-07-20T15:33:11;25.60;78.70
65692;DHT22;52411;52.716;6.696;2023-07-20T15:35:36;26.00;77.80
65692;DHT22;52411;52.716;6.696;2023-07-20T15:38:02;26.50;75.50
65692;DHT22;52411;52.716;6.696;2023-07-20T15:40:28;27.00;75.40
65692;DHT22;52411;52.716;6.696;2023-07-20T15:42:54;27.60;74.90